Hlavní strana
METAR-TAF:

METAR-TAF

Letiště :

Letiště Lublaň

Lublaň, Slovinsko

zeměpisná šířka: 46-13N, zeměpisná délka: 014-29E, výška: 385 m

Aktuální stav počasí

Zpráva byla vytvořena před 28 minutami, v 01:30 UTC
Západní vítr 2 kt
Teplota -6°C
Vlhkost vzduchu 93%
Tlak 1019 hPa
Viditelnost 10 km a více
Skoro jasno ve výšce 6000 ft

METAR: LJLJ 130130Z 28002KT 9999 FEW060 M06/M07 Q1019 NOSIG

Čas: 02:58 (01:58 UTC)

Předpověď počasí

Zpráva byla vytvořena před 2 hodinami a 58 minutami, v 23:00 UTC
Předpověď platná od 13 v 00 UTC do 13 v 24 UTC
vítr z různých směrů 2 kt
Viditelnost 10 km a více
Žádná oblačnost pod 1500 m, nevyskytují se cumulonimby.
Změna
od 13 v 04 UTC do 13 v 07 UTC
Oblačno až skoro zataženo ve výšce 4000 ft
Dočasný
od 13 v 06 UTC do 13 v 24 UTC
Východní vítr 5 kt
Viditelnost: 7000 m
Oblačno až skoro zataženo ve výšce 3000 ft
slabé sněžení

TAF: LJLJ 122300Z 1300/1324 VRB02KT CAVOK BECMG 1304/1307 BKN040 TEMPO 1306/1324 10005KT 7000 -SN BKN030

Stav a předpovědi počasí z více než 4 000 letišť (zprávy METAR a TAF).

Červené a žluté tečky na mapě představují dostupné meteorologické stanice.

Když kurzor umístíte na tečku, zobrazí se název stanice.

Pak kliknutím zobrazíte stav a předpověď počasí.

Chcete-li změnit mapu, kliknutím na zelené tlačítko se znaménkem +mapu přiblížíte, kliknutím na zelené tlačítko se znaménkem – mapu oddálíte a kliknutím na zelené šipky přejdete na sousední mapy.


METAR-TAF: